sensor_id;sensor_type;location;lat;lon;timestamp;P1;durP1;ratioP1;P2;durP2;ratioP2
9005;SDS011;8079;48.688;9.018;2022-07-15T00:00:52;4.55;;;2.38;;
9005;SDS011;8079;48.688;9.018;2022-07-15T00:03:19;3.03;;;2.03;;
9005;SDS011;8079;48.688;9.018;2022-07-15T00:05:47;3.72;;;2.25;;
9005;SDS011;8079;48.688;9.018;2022-07-15T00:08:14;3.45;;;2.10;;
9005;SDS011;8079;48.688;9.018;2022-07-15T00:10:41;3.00;;;2.22;;
9005;SDS011;8079;48.688;9.018;2022-07-15T00:13:08;3.65;;;2.20;;
9005;SDS011;8079;48.688;9.018;2022-07-15T00:15:35;2.75;;;1.80;;
9005;SDS011;8079;48.688;9.018;2022-07-15T00:18:02;3.13;;;1.67;;
9005;SDS011;8079;48.688;9.018;2022-07-15T00:20:30;2.72;;;2.10;;
9005;SDS011;8079;48.688;9.018;2022-07-15T00:23:00;1.65;;;1.55;;
9005;SDS011;8079;48.688;9.018;2022-07-15T00:25:27;3.08;;;2.00;;
9005;SDS011;8079;48.688;9.018;2022-07-15T00:27:55;2.10;;;1.88;;
9005;SDS011;8079;48.688;9.018;2022-07-15T00:30:23;2.55;;;1.95;;
9005;SDS011;8079;48.688;9.018;2022-07-15T00:32:53;1.70;;;1.60;;
9005;SDS011;8079;48.688;9.018;2022-07-15T00:35:20;1.98;;;1.63;;
9005;SDS011;8079;48.688;9.018;2022-07-15T00:37:47;2.67;;;2.00;;
9005;SDS011;8079;48.688;9.018;2022-07-15T00:40:16;2.75;;;1.73;;
9005;SDS011;8079;48.688;9.018;2022-07-15T00:42:43;3.03;;;2.10;;
9005;SDS011;8079;48.688;9.018;2022-07-15T00:45:10;2.85;;;2.28;;
9005;SDS011;8079;48.688;9.018;2022-07-15T00:47:39;3.17;;;1.95;;
9005;SDS011;8079;48.688;9.018;2022-07-15T00:50:06;3.70;;;2.25;;
9005;SDS011;8079;48.688;9.018;2022-07-15T00:52:34;3.20;;;2.15;;
9005;SDS011;8079;48.688;9.018;2022-07-15T00:55:05;3.30;;;1.85;;
9005;SDS011;8079;48.688;9.018;2022-07-15T00:57:36;2.83;;;1.90;;
9005;SDS011;8079;48.688;9.018;2022-07-15T01:00:04;2.08;;;1.90;;
9005;SDS011;8079;48.688;9.018;2022-07-15T01:02:33;2.65;;;2.45;;
9005;SDS011;8079;48.688;9.018;2022-07-15T01:05:02;2.42;;;2.22;;
9005;SDS011;8079;48.688;9.018;2022-07-15T01:07:31;3.53;;;2.05;;
9005;SDS011;8079;48.688;9.018;2022-07-15T01:09:58;3.63;;;2.35;;
9005;SDS011;8079;48.688;9.018;2022-07-15T01:12:26;3.20;;;2.00;;
9005;SDS011;8079;48.688;9.018;2022-07-15T01:14:54;3.05;;;2.33;;
9005;SDS011;8079;48.688;9.018;2022-07-15T01:17:23;2.42;;;1.95;;
9005;SDS011;8079;48.688;9.018;2022-07-15T01:19:50;3.60;;;2.22;;
9005;SDS011;8079;48.688;9.018;2022-07-15T01:22:19;3.70;;;2.38;;
9005;SDS011;8079;48.688;9.018;2022-07-15T01:24:46;2.28;;;2.08;;
9005;SDS011;8079;48.688;9.018;2022-07-15T01:27:13;4.82;;;2.60;;
9005;SDS011;8079;48.688;9.018;2022-07-15T01:29:40;3.42;;;2.25;;
9005;SDS011;8079;48.688;9.018;2022-07-15T01:32:07;3.30;;;2.25;;
9005;SDS011;8079;48.688;9.018;2022-07-15T01:34:34;2.63;;;2.20;;
9005;SDS011;8079;48.688;9.018;2022-07-15T01:37:01;3.10;;;2.40;;
9005;SDS011;8079;48.688;9.018;2022-07-15T01:39:29;4.43;;;2.70;;
9005;SDS011;8079;48.688;9.018;2022-07-15T01:41:56;2.58;;;2.10;;
9005;SDS011;8079;48.688;9.018;2022-07-15T01:44:23;3.65;;;2.28;;
9005;SDS011;8079;48.688;9.018;2022-07-15T01:46:50;2.78;;;2.28;;
9005;SDS011;8079;48.688;9.018;2022-07-15T01:49:17;4.97;;;2.20;;
9005;SDS011;8079;48.688;9.018;2022-07-15T01:51:51;2.42;;;1.90;;
9005;SDS011;8079;48.688;9.018;2022-07-15T01:54:19;2.38;;;2.17;;
9005;SDS011;8079;48.688;9.018;2022-07-15T01:56:48;3.90;;;2.50;;
9005;SDS011;8079;48.688;9.018;2022-07-15T01:59:16;3.58;;;2.42;;
9005;SDS011;8079;48.688;9.018;2022-07-15T02:01:43;3.90;;;2.88;;
9005;SDS011;8079;48.688;9.018;2022-07-15T02:04:10;3.63;;;2.40;;
9005;SDS011;8079;48.688;9.018;2022-07-15T02:06:38;3.95;;;2.53;;
9005;SDS011;8079;48.688;9.018;2022-07-15T02:09:05;3.25;;;2.42;;
9005;SDS011;8079;48.688;9.018;2022-07-15T02:11:32;3.28;;;2.67;;
9005;SDS011;8079;48.688;9.018;2022-07-15T02:14:01;4.43;;;2.60;;
9005;SDS011;8079;48.688;9.018;2022-07-15T02:16:28;3.95;;;2.72;;
9005;SDS011;8079;48.688;9.018;2022-07-15T02:18:55;2.30;;;2.10;;
9005;SDS011;8079;48.688;9.018;2022-07-15T02:21:24;3.10;;;2.35;;
9005;SDS011;8079;48.688;9.018;2022-07-15T02:23:52;2.38;;;2.17;;
9005;SDS011;8079;48.688;9.018;2022-07-15T02:26:19;3.22;;;2.33;;
9005;SDS011;8079;48.688;9.018;2022-07-15T02:28:46;3.33;;;2.53;;
9005;SDS011;8079;48.688;9.018;2022-07-15T02:31:14;3.60;;;2.80;;
9005;SDS011;8079;48.688;9.018;2022-07-15T02:33:41;4.32;;;2.20;;
9005;SDS011;8079;48.688;9.018;2022-07-15T02:36:08;3.17;;;2.53;;
9005;SDS011;8079;48.688;9.018;2022-07-15T02:38:35;3.42;;;2.67;;
9005;SDS011;8079;48.688;9.018;2022-07-15T02:41:03;2.55;;;2.13;;
9005;SDS011;8079;48.688;9.018;2022-07-15T02:43:30;3.17;;;2.13;;
9005;SDS011;8079;48.688;9.018;2022-07-15T02:45:57;2.72;;;2.13;;
9005;SDS011;8079;48.688;9.018;2022-07-15T02:48:26;3.28;;;2.53;;
9005;SDS011;8079;48.688;9.018;2022-07-15T02:50:53;2.60;;;2.20;;
9005;SDS011;8079;48.688;9.018;2022-07-15T02:53:20;3.08;;;2.38;;
9005;SDS011;8079;48.688;9.018;2022-07-15T02:55:50;5.55;;;2.60;;
9005;SDS011;8079;48.688;9.018;2022-07-15T02:58:18;3.92;;;2.63;;
9005;SDS011;8079;48.688;9.018;2022-07-15T03:00:45;3.13;;;2.67;;
9005;SDS011;8079;48.688;9.018;2022-07-15T03:03:12;4.18;;;2.78;;
9005;SDS011;8079;48.688;9.018;2022-07-15T03:05:40;2.90;;;2.60;;
9005;SDS011;8079;48.688;9.018;2022-07-15T03:08:07;4.05;;;2.60;;
9005;SDS011;8079;48.688;9.018;2022-07-15T03:10:35;4.75;;;2.95;;
9005;SDS011;8079;48.688;9.018;2022-07-15T03:13:02;4.75;;;2.88;;
9005;SDS011;8079;48.688;9.018;2022-07-15T03:15:29;6.60;;;3.15;;
9005;SDS011;8079;48.688;9.018;2022-07-15T03:17:56;5.00;;;2.75;;
9005;SDS011;8079;48.688;9.018;2022-07-15T03:20:22;4.35;;;2.75;;
9005;SDS011;8079;48.688;9.018;2022-07-15T03:22:51;4.95;;;3.17;;
9005;SDS011;8079;48.688;9.018;2022-07-15T03:25:18;5.70;;;2.40;;
9005;SDS011;8079;48.688;9.018;2022-07-15T03:27:45;4.60;;;2.90;;
9005;SDS011;8079;48.688;9.018;2022-07-15T03:30:12;4.45;;;2.88;;
9005;SDS011;8079;48.688;9.018;2022-07-15T03:32:40;5.85;;;3.42;;
9005;SDS011;8079;48.688;9.018;2022-07-15T03:35:07;3.95;;;2.63;;
9005;SDS011;8079;48.688;9.018;2022-07-15T03:37:34;3.72;;;2.70;;
9005;SDS011;8079;48.688;9.018;2022-07-15T03:40:03;4.88;;;2.80;;
9005;SDS011;8079;48.688;9.018;2022-07-15T03:42:31;3.90;;;2.60;;
9005;SDS011;8079;48.688;9.018;2022-07-15T03:44:58;3.92;;;2.90;;
9005;SDS011;8079;48.688;9.018;2022-07-15T03:47:25;6.93;;;3.47;;
9005;SDS011;8079;48.688;9.018;2022-07-15T03:49:52;4.32;;;2.90;;
9005;SDS011;8079;48.688;9.018;2022-07-15T03:52:19;3.70;;;2.60;;
9005;SDS011;8079;48.688;9.018;2022-07-15T03:54:46;3.90;;;2.92;;
9005;SDS011;8079;48.688;9.018;2022-07-15T03:57:15;3.47;;;2.40;;
9005;SDS011;8079;48.688;9.018;2022-07-15T03:59:42;4.40;;;2.58;;
9005;SDS011;8079;48.688;9.018;2022-07-15T04:02:10;3.65;;;2.47;;
9005;SDS011;8079;48.688;9.018;2022-07-15T04:04:36;3.47;;;2.63;;
9005;SDS011;8079;48.688;9.018;2022-07-15T04:07:03;4.35;;;2.58;;
9005;SDS011;8079;48.688;9.018;2022-07-15T04:09:30;4.20;;;2.53;;
9005;SDS011;8079;48.688;9.018;2022-07-15T04:11:57;3.15;;;2.35;;
9005;SDS011;8079;48.688;9.018;2022-07-15T04:14:25;5.13;;;2.05;;
9005;SDS011;8079;48.688;9.018;2022-07-15T04:16:52;4.07;;;2.55;;
9005;SDS011;8079;48.688;9.018;2022-07-15T04:19:19;3.08;;;2.08;;
9005;SDS011;8079;48.688;9.018;2022-07-15T04:21:46;2.75;;;1.98;;
9005;SDS011;8079;48.688;9.018;2022-07-15T04:24:13;3.97;;;2.40;;
9005;SDS011;8079;48.688;9.018;2022-07-15T04:26:40;4.18;;;2.60;;
9005;SDS011;8079;48.688;9.018;2022-07-15T04:29:07;6.38;;;2.63;;
9005;SDS011;8079;48.688;9.018;2022-07-15T04:31:35;3.90;;;1.98;;
9005;SDS011;8079;48.688;9.018;2022-07-15T04:34:02;3.35;;;2.08;;
9005;SDS011;8079;48.688;9.018;2022-07-15T04:36:29;3.05;;;1.92;;
9005;SDS011;8079;48.688;9.018;2022-07-15T04:38:56;3.75;;;2.30;;
9005;SDS011;8079;48.688;9.018;2022-07-15T04:41:23;3.83;;;2.13;;
9005;SDS011;8079;48.688;9.018;2022-07-15T04:43:50;4.47;;;2.72;;
9005;SDS011;8079;48.688;9.018;2022-07-15T04:46:16;3.47;;;2.10;;
9005;SDS011;8079;48.688;9.018;2022-07-15T04:48:45;3.95;;;2.20;;
9005;SDS011;8079;48.688;9.018;2022-07-15T04:51:29;4.90;;;2.05;;
9005;SDS011;8079;48.688;9.018;2022-07-15T04:53:56;3.80;;;2.08;;
9005;SDS011;8079;48.688;9.018;2022-07-15T04:56:23;3.42;;;1.73;;
9005;SDS011;8079;48.688;9.018;2022-07-15T04:58:50;4.93;;;2.50;;
9005;SDS011;8079;48.688;9.018;2022-07-15T05:01:17;5.03;;;2.83;;
9005;SDS011;8079;48.688;9.018;2022-07-15T05:03:45;4.90;;;2.38;;
9005;SDS011;8079;48.688;9.018;2022-07-15T05:06:12;4.00;;;2.20;;
9005;SDS011;8079;48.688;9.018;2022-07-15T05:08:39;3.65;;;2.47;;
9005;SDS011;8079;48.688;9.018;2022-07-15T05:11:06;5.47;;;2.65;;
9005;SDS011;8079;48.688;9.018;2022-07-15T05:13:35;3.55;;;2.10;;
9005;SDS011;8079;48.688;9.018;2022-07-15T05:16:03;4.80;;;2.50;;
9005;SDS011;8079;48.688;9.018;2022-07-15T05:18:30;3.72;;;2.40;;
9005;SDS011;8079;48.688;9.018;2022-07-15T05:20:59;4.45;;;2.10;;
9005;SDS011;8079;48.688;9.018;2022-07-15T05:23:26;3.03;;;2.72;;
9005;SDS011;8079;48.688;9.018;2022-07-15T05:25:52;5.60;;;2.90;;
9005;SDS011;8079;48.688;9.018;2022-07-15T05:28:19;3.55;;;2.38;;
9005;SDS011;8079;48.688;9.018;2022-07-15T05:30:47;4.45;;;3.05;;
9005;SDS011;8079;48.688;9.018;2022-07-15T05:33:15;3.40;;;2.97;;
9005;SDS011;8079;48.688;9.018;2022-07-15T05:35:42;5.43;;;2.78;;
9005;SDS011;8079;48.688;9.018;2022-07-15T05:38:10;5.30;;;3.20;;
9005;SDS011;8079;48.688;9.018;2022-07-15T05:40:37;3.45;;;2.63;;
9005;SDS011;8079;48.688;9.018;2022-07-15T05:43:04;5.22;;;3.38;;
9005;SDS011;8079;48.688;9.018;2022-07-15T05:45:32;4.30;;;2.88;;
9005;SDS011;8079;48.688;9.018;2022-07-15T05:47:59;4.38;;;2.90;;
9005;SDS011;8079;48.688;9.018;2022-07-15T05:50:26;4.97;;;3.30;;
9005;SDS011;8079;48.688;9.018;2022-07-15T05:52:53;6.47;;;3.63;;
9005;SDS011;8079;48.688;9.018;2022-07-15T05:55:21;4.97;;;3.78;;
9005;SDS011;8079;48.688;9.018;2022-07-15T05:57:48;4.95;;;3.20;;
9005;SDS011;8079;48.688;9.018;2022-07-15T06:00:15;5.45;;;3.28;;
9005;SDS011;8079;48.688;9.018;2022-07-15T06:02:42;5.50;;;3.28;;
9005;SDS011;8079;48.688;9.018;2022-07-15T06:05:10;3.45;;;3.08;;
9005;SDS011;8079;48.688;9.018;2022-07-15T06:07:38;4.90;;;3.40;;
9005;SDS011;8079;48.688;9.018;2022-07-15T06:10:05;3.55;;;2.88;;
9005;SDS011;8079;48.688;9.018;2022-07-15T06:12:35;4.30;;;3.28;;
9005;SDS011;8079;48.688;9.018;2022-07-15T06:15:02;5.95;;;3.08;;
9005;SDS011;8079;48.688;9.018;2022-07-15T06:17:29;5.78;;;3.08;;
9005;SDS011;8079;48.688;9.018;2022-07-15T06:19:56;5.95;;;3.50;;
9005;SDS011;8079;48.688;9.018;2022-07-15T06:22:23;6.78;;;2.90;;
9005;SDS011;8079;48.688;9.018;2022-07-15T06:24:50;6.97;;;3.63;;
9005;SDS011;8079;48.688;9.018;2022-07-15T06:27:17;5.22;;;3.47;;
9005;SDS011;8079;48.688;9.018;2022-07-15T06:29:48;4.88;;;3.13;;
9005;SDS011;8079;48.688;9.018;2022-07-15T06:32:14;4.38;;;3.25;;
9005;SDS011;8079;48.688;9.018;2022-07-15T06:34:42;4.03;;;3.17;;
9005;SDS011;8079;48.688;9.018;2022-07-15T06:37:09;6.78;;;3.45;;
9005;SDS011;8079;48.688;9.018;2022-07-15T06:39:36;6.35;;;3.70;;
9005;SDS011;8079;48.688;9.018;2022-07-15T06:42:03;3.95;;;3.13;;
9005;SDS011;8079;48.688;9.018;2022-07-15T06:44:31;8.35;;;3.97;;
9005;SDS011;8079;48.688;9.018;2022-07-15T06:46:59;3.67;;;3.38;;
9005;SDS011;8079;48.688;9.018;2022-07-15T06:49:28;6.07;;;4.13;;
9005;SDS011;8079;48.688;9.018;2022-07-15T06:51:55;7.90;;;3.92;;
9005;SDS011;8079;48.688;9.018;2022-07-15T06:54:24;5.30;;;3.70;;
9005;SDS011;8079;48.688;9.018;2022-07-15T06:56:51;4.95;;;3.72;;
9005;SDS011;8079;48.688;9.018;2022-07-15T06:59:18;6.60;;;3.78;;
9005;SDS011;8079;48.688;9.018;2022-07-15T07:01:46;8.43;;;4.25;;
9005;SDS011;8079;48.688;9.018;2022-07-15T07:04:14;4.65;;;3.95;;
9005;SDS011;8079;48.688;9.018;2022-07-15T07:06:41;6.50;;;4.10;;
9005;SDS011;8079;48.688;9.018;2022-07-15T07:09:08;8.15;;;4.05;;
9005;SDS011;8079;48.688;9.018;2022-07-15T07:11:35;7.95;;;4.00;;
9005;SDS011;8079;48.688;9.018;2022-07-15T07:14:02;4.43;;;3.80;;
9005;SDS011;8079;48.688;9.018;2022-07-15T07:16:29;4.13;;;3.35;;
9005;SDS011;8079;48.688;9.018;2022-07-15T07:18:57;5.78;;;3.83;;
9005;SDS011;8079;48.688;9.018;2022-07-15T07:21:26;5.10;;;3.45;;
9005;SDS011;8079;48.688;9.018;2022-07-15T07:23:53;3.95;;;3.40;;
9005;SDS011;8079;48.688;9.018;2022-07-15T07:26:20;5.72;;;3.70;;
9005;SDS011;8079;48.688;9.018;2022-07-15T07:28:47;6.60;;;3.38;;
9005;SDS011;8079;48.688;9.018;2022-07-15T07:31:14;4.95;;;3.30;;
9005;SDS011;8079;48.688;9.018;2022-07-15T07:33:41;4.28;;;3.20;;
9005;SDS011;8079;48.688;9.018;2022-07-15T07:36:08;5.30;;;3.50;;
9005;SDS011;8079;48.688;9.018;2022-07-15T07:38:37;4.63;;;2.92;;
9005;SDS011;8079;48.688;9.018;2022-07-15T07:41:04;4.05;;;2.88;;
9005;SDS011;8079;48.688;9.018;2022-07-15T07:43:31;3.88;;;3.00;;
9005;SDS011;8079;48.688;9.018;2022-07-15T07:46:00;3.97;;;2.97;;
9005;SDS011;8079;48.688;9.018;2022-07-15T07:48:27;2.53;;;2.30;;
9005;SDS011;8079;48.688;9.018;2022-07-15T07:50:55;3.83;;;2.30;;
9005;SDS011;8079;48.688;9.018;2022-07-15T07:53:22;3.47;;;2.22;;
9005;SDS011;8079;48.688;9.018;2022-07-15T07:55:50;3.58;;;2.60;;
9005;SDS011;8079;48.688;9.018;2022-07-15T07:58:17;3.47;;;2.25;;
9005;SDS011;8079;48.688;9.018;2022-07-15T08:00:46;4.53;;;2.00;;
9005;SDS011;8079;48.688;9.018;2022-07-15T08:03:13;3.20;;;2.25;;
9005;SDS011;8079;48.688;9.018;2022-07-15T08:05:41;3.83;;;1.98;;
9005;SDS011;8079;48.688;9.018;2022-07-15T08:08:09;4.05;;;2.05;;
9005;SDS011;8079;48.688;9.018;2022-07-15T08:10:37;3.42;;;2.30;;
9005;SDS011;8079;48.688;9.018;2022-07-15T08:13:06;3.03;;;1.95;;
9005;SDS011;8079;48.688;9.018;2022-07-15T08:15:33;2.28;;;1.65;;
9005;SDS011;8079;48.688;9.018;2022-07-15T08:18:00;2.75;;;2.08;;
9005;SDS011;8079;48.688;9.018;2022-07-15T08:20:28;4.68;;;2.55;;
9005;SDS011;8079;48.688;9.018;2022-07-15T08:22:57;3.28;;;2.22;;
9005;SDS011;8079;48.688;9.018;2022-07-15T08:25:25;4.15;;;2.08;;
9005;SDS011;8079;48.688;9.018;2022-07-15T08:27:53;4.93;;;1.92;;
9005;SDS011;8079;48.688;9.018;2022-07-15T08:30:22;2.60;;;1.65;;
9005;SDS011;8079;48.688;9.018;2022-07-15T08:32:49;2.13;;;1.02;;
9005;SDS011;8079;48.688;9.018;2022-07-15T08:35:16;1.75;;;1.42;;
9005;SDS011;8079;48.688;9.018;2022-07-15T08:37:43;1.58;;;1.38;;
9005;SDS011;8079;48.688;9.018;2022-07-15T08:40:10;2.25;;;2.05;;
9005;SDS011;8079;48.688;9.018;2022-07-15T08:42:38;2.35;;;1.75;;
9005;SDS011;8079;48.688;9.018;2022-07-15T08:45:07;2.58;;;1.33;;
9005;SDS011;8079;48.688;9.018;2022-07-15T08:47:37;1.70;;;1.13;;
9005;SDS011;8079;48.688;9.018;2022-07-15T08:50:06;4.97;;;1.75;;
9005;SDS011;8079;48.688;9.018;2022-07-15T08:52:36;4.50;;;1.98;;
9005;SDS011;8079;48.688;9.018;2022-07-15T08:55:04;2.40;;;1.50;;
9005;SDS011;8079;48.688;9.018;2022-07-15T08:57:32;2.90;;;1.58;;
9005;SDS011;8079;48.688;9.018;2022-07-15T09:00:00;2.95;;;1.95;;
9005;SDS011;8079;48.688;9.018;2022-07-15T09:02:27;1.63;;;1.52;;
9005;SDS011;8079;48.688;9.018;2022-07-15T09:07:51;2.90;;;1.98;;
9005;SDS011;8079;48.688;9.018;2022-07-15T09:10:20;1.92;;;1.50;;
9005;SDS011;8079;48.688;9.018;2022-07-15T09:12:48;3.13;;;1.45;;
9005;SDS011;8079;48.688;9.018;2022-07-15T09:15:29;2.20;;;1.52;;
9005;SDS011;8079;48.688;9.018;2022-07-15T09:18:03;1.17;;;0.90;;
9005;SDS011;8079;48.688;9.018;2022-07-15T09:20:34;4.15;;;1.65;;
9005;SDS011;8079;48.688;9.018;2022-07-15T09:23:01;2.25;;;1.20;;
9005;SDS011;8079;48.688;9.018;2022-07-15T09:25:30;2.88;;;1.60;;
9005;SDS011;8079;48.688;9.018;2022-07-15T09:28:00;2.70;;;1.50;;
9005;SDS011;8079;48.688;9.018;2022-07-15T09:30:29;1.63;;;1.13;;
9005;SDS011;8079;48.688;9.018;2022-07-15T09:33:15;2.47;;;1.20;;
9005;SDS011;8079;48.688;9.018;2022-07-15T09:38:46;2.17;;;1.20;;
9005;SDS011;8079;48.688;9.018;2022-07-15T09:41:24;2.55;;;1.50;;
9005;SDS011;8079;48.688;9.018;2022-07-15T09:43:53;1.23;;;0.93;;
9005;SDS011;8079;48.688;9.018;2022-07-15T09:46:22;1.65;;;1.08;;
9005;SDS011;8079;48.688;9.018;2022-07-15T09:48:50;2.47;;;1.70;;
9005;SDS011;8079;48.688;9.018;2022-07-15T09:51:20;1.85;;;1.25;;
9005;SDS011;8079;48.688;9.018;2022-07-15T09:53:48;1.67;;;1.08;;
9005;SDS011;8079;48.688;9.018;2022-07-15T09:56:16;1.50;;;1.15;;
9005;SDS011;8079;48.688;9.018;2022-07-15T09:58:48;2.50;;;1.17;;
9005;SDS011;8079;48.688;9.018;2022-07-15T10:01:16;2.40;;;1.23;;
9005;SDS011;8079;48.688;9.018;2022-07-15T10:03:43;3.80;;;1.90;;
9005;SDS011;8079;48.688;9.018;2022-07-15T10:06:11;1.98;;;1.60;;
9005;SDS011;8079;48.688;9.018;2022-07-15T10:08:43;1.95;;;1.20;;
9005;SDS011;8079;48.688;9.018;2022-07-15T10:11:13;1.45;;;1.10;;
9005;SDS011;8079;48.688;9.018;2022-07-15T10:13:49;2.13;;;1.20;;
9005;SDS011;8079;48.688;9.018;2022-07-15T10:16:45;3.33;;;1.83;;
9005;SDS011;8079;48.688;9.018;2022-07-15T10:19:30;2.30;;;1.40;;
9005;SDS011;8079;48.688;9.018;2022-07-15T10:22:22;1.98;;;1.30;;
9005;SDS011;8079;48.688;9.018;2022-07-15T10:25:06;2.67;;;0.90;;
9005;SDS011;8079;48.688;9.018;2022-07-15T10:27:45;4.47;;;4.07;;
9005;SDS011;8079;48.688;9.018;2022-07-15T10:30:18;2.58;;;2.10;;
9005;SDS011;8079;48.688;9.018;2022-07-15T10:33:06;2.08;;;1.42;;
9005;SDS011;8079;48.688;9.018;2022-07-15T10:35:36;1.80;;;1.52;;
9005;SDS011;8079;48.688;9.018;2022-07-15T10:38:19;1.77;;;1.17;;
9005;SDS011;8079;48.688;9.018;2022-07-15T10:41:01;1.10;;;1.00;;
9005;SDS011;8079;48.688;9.018;2022-07-15T10:43:40;1.92;;;1.48;;
9005;SDS011;8079;48.688;9.018;2022-07-15T10:46:17;5.25;;;2.08;;
9005;SDS011;8079;48.688;9.018;2022-07-15T10:48:46;2.85;;;1.67;;
9005;SDS011;8079;48.688;9.018;2022-07-15T10:57:13;1.70;;;1.60;;
9005;SDS011;8079;48.688;9.018;2022-07-15T10:59:49;1.60;;;1.50;;
9005;SDS011;8079;48.688;9.018;2022-07-15T11:02:21;2.60;;;1.58;;
9005;SDS011;8079;48.688;9.018;2022-07-15T11:04:50;2.33;;;1.48;;
9005;SDS011;8079;48.688;9.018;2022-07-15T11:07:28;2.38;;;1.50;;
9005;SDS011;8079;48.688;9.018;2022-07-15T11:09:58;1.98;;;1.60;;
9005;SDS011;8079;48.688;9.018;2022-07-15T11:13:01;1.77;;;1.60;;
9005;SDS011;8079;48.688;9.018;2022-07-15T11:15:32;2.85;;;1.58;;
9005;SDS011;8079;48.688;9.018;2022-07-15T11:17:59;2.58;;;1.92;;
9005;SDS011;8079;48.688;9.018;2022-07-15T11:20:34;2.40;;;1.67;;
9005;SDS011;8079;48.688;9.018;2022-07-15T11:23:03;2.50;;;1.40;;
9005;SDS011;8079;48.688;9.018;2022-07-15T11:25:32;2.92;;;1.50;;
9005;SDS011;8079;48.688;9.018;2022-07-15T11:28:03;2.33;;;1.67;;
9005;SDS011;8079;48.688;9.018;2022-07-15T11:30:34;3.50;;;1.80;;
9005;SDS011;8079;48.688;9.018;2022-07-15T11:33:04;1.92;;;1.63;;
9005;SDS011;8079;48.688;9.018;2022-07-15T11:35:41;2.17;;;1.88;;
9005;SDS011;8079;48.688;9.018;2022-07-15T11:38:10;2.38;;;1.80;;
9005;SDS011;8079;48.688;9.018;2022-07-15T11:40:41;3.60;;;2.05;;
9005;SDS011;8079;48.688;9.018;2022-07-15T11:43:28;2.30;;;1.90;;
9005;SDS011;8079;48.688;9.018;2022-07-15T11:46:13;2.15;;;1.85;;
9005;SDS011;8079;48.688;9.018;2022-07-15T11:48:40;2.50;;;1.98;;
9005;SDS011;8079;48.688;9.018;2022-07-15T11:51:08;2.63;;;2.13;;
9005;SDS011;8079;48.688;9.018;2022-07-15T11:53:36;3.05;;;2.22;;
9005;SDS011;8079;48.688;9.018;2022-07-15T11:56:05;1.67;;;1.58;;
9005;SDS011;8079;48.688;9.018;2022-07-15T11:58:35;3.95;;;2.50;;
9005;SDS011;8079;48.688;9.018;2022-07-15T12:01:04;2.15;;;2.00;;
9005;SDS011;8079;48.688;9.018;2022-07-15T12:03:33;3.08;;;2.10;;
9005;SDS011;8079;48.688;9.018;2022-07-15T12:06:01;2.50;;;2.00;;
9005;SDS011;8079;48.688;9.018;2022-07-15T12:08:38;2.25;;;2.10;;
9005;SDS011;8079;48.688;9.018;2022-07-15T12:11:10;2.30;;;1.85;;
9005;SDS011;8079;48.688;9.018;2022-07-15T12:13:45;2.65;;;2.15;;
9005;SDS011;8079;48.688;9.018;2022-07-15T12:16:17;2.15;;;1.80;;
9005;SDS011;8079;48.688;9.018;2022-07-15T12:18:47;3.42;;;2.20;;
9005;SDS011;8079;48.688;9.018;2022-07-15T12:21:14;2.97;;;2.30;;
9005;SDS011;8079;48.688;9.018;2022-07-15T12:23:56;2.45;;;2.20;;
9005;SDS011;8079;48.688;9.018;2022-07-15T12:26:24;2.70;;;2.40;;
9005;SDS011;8079;48.688;9.018;2022-07-15T12:28:53;4.53;;;2.22;;
9005;SDS011;8079;48.688;9.018;2022-07-15T12:31:25;2.70;;;2.15;;
9005;SDS011;8079;48.688;9.018;2022-07-15T12:33:52;2.78;;;2.25;;
9005;SDS011;8079;48.688;9.018;2022-07-15T12:36:21;3.90;;;2.70;;
9005;SDS011;8079;48.688;9.018;2022-07-15T12:39:06;2.58;;;1.95;;
9005;SDS011;8079;48.688;9.018;2022-07-15T12:41:36;3.92;;;2.40;;
9005;SDS011;8079;48.688;9.018;2022-07-15T12:44:05;4.28;;;1.88;;
9005;SDS011;8079;48.688;9.018;2022-07-15T12:46:50;3.00;;;2.00;;
9005;SDS011;8079;48.688;9.018;2022-07-15T12:52:19;3.80;;;2.40;;
9005;SDS011;8079;48.688;9.018;2022-07-15T12:54:48;3.28;;;2.00;;
9005;SDS011;8079;48.688;9.018;2022-07-15T12:57:27;3.15;;;1.80;;
9005;SDS011;8079;48.688;9.018;2022-07-15T12:59:58;4.00;;;2.80;;
9005;SDS011;8079;48.688;9.018;2022-07-15T13:02:28;3.65;;;2.08;;
9005;SDS011;8079;48.688;9.018;2022-07-15T13:04:56;3.50;;;2.03;;
9005;SDS011;8079;48.688;9.018;2022-07-15T13:07:23;2.28;;;1.48;;
9005;SDS011;8079;48.688;9.018;2022-07-15T13:09:51;1.85;;;1.60;;
9005;SDS011;8079;48.688;9.018;2022-07-15T13:12:18;1.85;;;1.50;;
9005;SDS011;8079;48.688;9.018;2022-07-15T13:14:45;1.73;;;1.30;;
9005;SDS011;8079;48.688;9.018;2022-07-15T13:17:13;1.95;;;1.85;;
9005;SDS011;8079;48.688;9.018;2022-07-15T13:19:40;2.28;;;1.80;;
9005;SDS011;8079;48.688;9.018;2022-07-15T13:22:07;2.63;;;1.50;;
9005;SDS011;8079;48.688;9.018;2022-07-15T13:24:33;1.45;;;1.35;;
9005;SDS011;8079;48.688;9.018;2022-07-15T13:27:00;3.63;;;1.80;;
9005;SDS011;8079;48.688;9.018;2022-07-15T13:29:27;1.42;;;1.13;;
9005;SDS011;8079;48.688;9.018;2022-07-15T13:31:54;2.15;;;1.50;;
9005;SDS011;8079;48.688;9.018;2022-07-15T13:34:23;1.27;;;1.17;;
9005;SDS011;8079;48.688;9.018;2022-07-15T13:36:50;3.05;;;1.50;;
9005;SDS011;8079;48.688;9.018;2022-07-15T13:39:17;1.42;;;1.25;;
9005;SDS011;8079;48.688;9.018;2022-07-15T13:41:44;2.85;;;1.23;;
9005;SDS011;8079;48.688;9.018;2022-07-15T13:44:12;2.55;;;1.02;;
9005;SDS011;8079;48.688;9.018;2022-07-15T13:46:38;2.78;;;1.33;;
9005;SDS011;8079;48.688;9.018;2022-07-15T13:49:06;1.85;;;1.25;;
9005;SDS011;8079;48.688;9.018;2022-07-15T13:51:34;1.85;;;1.23;;
9005;SDS011;8079;48.688;9.018;2022-07-15T13:54:01;1.65;;;1.20;;
9005;SDS011;8079;48.688;9.018;2022-07-15T13:56:28;2.72;;;1.15;;
9005;SDS011;8079;48.688;9.018;2022-07-15T13:58:55;1.60;;;1.27;;
9005;SDS011;8079;48.688;9.018;2022-07-15T14:01:24;2.25;;;0.93;;
9005;SDS011;8079;48.688;9.018;2022-07-15T14:03:52;3.58;;;1.13;;
9005;SDS011;8079;48.688;9.018;2022-07-15T14:06:20;2.22;;;1.38;;
9005;SDS011;8079;48.688;9.018;2022-07-15T14:08:48;2.45;;;1.35;;
9005;SDS011;8079;48.688;9.018;2022-07-15T14:11:15;2.53;;;1.77;;
9005;SDS011;8079;48.688;9.018;2022-07-15T14:13:43;2.72;;;1.30;;
9005;SDS011;8079;48.688;9.018;2022-07-15T14:16:10;4.03;;;2.95;;
9005;SDS011;8079;48.688;9.018;2022-07-15T14:18:36;3.13;;;1.27;;
9005;SDS011;8079;48.688;9.018;2022-07-15T14:21:10;1.60;;;1.27;;
9005;SDS011;8079;48.688;9.018;2022-07-15T14:23:38;0.88;;;0.80;;
9005;SDS011;8079;48.688;9.018;2022-07-15T14:26:07;2.05;;;1.40;;
9005;SDS011;8079;48.688;9.018;2022-07-15T14:28:34;2.00;;;1.23;;
9005;SDS011;8079;48.688;9.018;2022-07-15T14:31:01;2.80;;;1.27;;
9005;SDS011;8079;48.688;9.018;2022-07-15T14:33:30;1.73;;;1.23;;
9005;SDS011;8079;48.688;9.018;2022-07-15T14:35:57;2.60;;;1.20;;
9005;SDS011;8079;48.688;9.018;2022-07-15T14:38:23;1.75;;;1.08;;
9005;SDS011;8079;48.688;9.018;2022-07-15T14:40:50;1.67;;;1.02;;
9005;SDS011;8079;48.688;9.018;2022-07-15T14:43:19;1.98;;;1.15;;
9005;SDS011;8079;48.688;9.018;2022-07-15T14:45:46;2.28;;;1.38;;
9005;SDS011;8079;48.688;9.018;2022-07-15T14:48:12;2.83;;;1.50;;
9005;SDS011;8079;48.688;9.018;2022-07-15T14:50:39;1.30;;;1.20;;
9005;SDS011;8079;48.688;9.018;2022-07-15T14:53:06;1.58;;;1.10;;
9005;SDS011;8079;48.688;9.018;2022-07-15T14:55:33;1.63;;;1.25;;
9005;SDS011;8079;48.688;9.018;2022-07-15T14:58:00;1.10;;;0.88;;
9005;SDS011;8079;48.688;9.018;2022-07-15T15:00:29;1.83;;;1.25;;
9005;SDS011;8079;48.688;9.018;2022-07-15T15:02:56;1.38;;;1.05;;
9005;SDS011;8079;48.688;9.018;2022-07-15T15:05:23;3.42;;;1.50;;
9005;SDS011;8079;48.688;9.018;2022-07-15T15:07:50;1.83;;;1.30;;
9005;SDS011;8079;48.688;9.018;2022-07-15T15:10:18;2.78;;;1.40;;
9005;SDS011;8079;48.688;9.018;2022-07-15T15:12:45;3.50;;;1.20;;
9005;SDS011;8079;48.688;9.018;2022-07-15T15:15:12;2.00;;;1.13;;
9005;SDS011;8079;48.688;9.018;2022-07-15T15:17:40;1.90;;;1.30;;
9005;SDS011;8079;48.688;9.018;2022-07-15T15:20:08;2.42;;;0.90;;
9005;SDS011;8079;48.688;9.018;2022-07-15T15:22:35;2.15;;;1.10;;
9005;SDS011;8079;48.688;9.018;2022-07-15T15:25:03;2.90;;;2.70;;
9005;SDS011;8079;48.688;9.018;2022-07-15T15:27:31;2.05;;;1.38;;
9005;SDS011;8079;48.688;9.018;2022-07-15T15:29:58;1.33;;;0.90;;
9005;SDS011;8079;48.688;9.018;2022-07-15T15:32:25;2.08;;;1.10;;
9005;SDS011;8079;48.688;9.018;2022-07-15T15:34:54;2.15;;;1.23;;
9005;SDS011;8079;48.688;9.018;2022-07-15T15:37:21;2.42;;;1.20;;
9005;SDS011;8079;48.688;9.018;2022-07-15T15:39:48;1.85;;;1.00;;